Time;durP1;ratioP1;P1;durP2;ratioP2;P2;SDS_P1;SDS_P2;PMS_P1;PMS_P2;Temp;Humidity;BMP_temperature;BMP_pressure;BME280_temperature;BME280_humidity;BME280_pressure;Samples;Min_cycle;Max_cycle;Signal;HPM_P1;HPM_P2
2024/01/18 00:00:06;;;;;;;5.60;5.00;;;;;;;18.97;44.04;99202.22;5023182;28;20049;-60
2024/01/18 00:02:33;;;;;;;5.20;4.70;;;;;;;18.97;43.88;99210.25;5031149;28;20044;-60
2024/01/18 00:05:00;;;;;;;6.00;4.75;;;;;;;18.97;43.87;99183.44;5029751;28;20045;-58
2024/01/18 00:07:29;;;;;;;7.53;5.53;;;;;;;18.97;43.74;99186.13;5019429;28;20393;-57
2024/01/18 00:09:57;;;;;;;6.25;5.40;;;;;;;18.97;43.81;99218.31;5030740;28;20053;-58
2024/01/18 00:12:24;;;;;;;6.47;4.70;;;;;;;18.98;43.84;99224.50;5022976;28;20045;-58
2024/01/18 00:14:52;;;;;;;6.38;4.88;;;;;;;18.97;43.61;99199.53;5031785;28;20395;-60
2024/01/18 00:17:19;;;;;;;6.40;5.15;;;;;;;18.98;43.64;99200.38;5025814;28;20054;-55
2024/01/18 00:19:46;;;;;;;5.75;4.57;;;;;;;18.97;43.61;99187.97;5023079;28;20057;-57
2024/01/18 00:22:14;;;;;;;7.10;4.93;;;;;;;18.96;43.73;99202.38;5024303;28;20045;-57
2024/01/18 00:24:41;;;;;;;5.85;4.40;;;;;;;18.97;43.61;99194.16;5019291;28;20050;-57
2024/01/18 00:27:09;;;;;;;7.50;4.85;;;;;;;18.97;43.78;99188.81;5020136;28;20057;-55
2024/01/18 00:29:36;;;;;;;6.43;5.20;;;;;;;18.96;43.47;99171.03;5022961;28;20053;-56
2024/01/18 00:32:04;;;;;;;5.32;4.40;;;;;;;18.96;43.55;99183.63;5018895;28;20056;-57
2024/01/18 00:34:31;;;;;;;5.40;4.63;;;;;;;18.96;43.62;99194.34;5020247;28;20076;-56
2024/01/18 00:36:59;;;;;;;5.35;4.40;;;;;;;18.95;43.48;99206.88;5020930;28;20053;-56
2024/01/18 00:39:26;;;;;;;5.80;5.20;;;;;;;18.95;43.58;99185.44;5022911;28;20052;-57
2024/01/18 00:41:54;;;;;;;5.95;4.18;;;;;;;18.94;43.39;99175.72;5022947;28;20042;-55
2024/01/18 00:44:21;;;;;;;6.22;5.20;;;;;;;18.94;43.33;99156.94;5021182;28;20049;-57
2024/01/18 00:46:48;;;;;;;6.28;4.65;;;;;;;18.93;43.49;99175.91;5029816;28;20065;-59
2024/01/18 00:49:15;;;;;;;5.75;4.72;;;;;;;18.94;43.33;99182.94;5027355;28;20053;-57
2024/01/18 00:51:43;;;;;;;7.40;4.93;;;;;;;18.93;43.32;99184.78;5028149;28;20053;-55
2024/01/18 00:54:10;;;;;;;6.53;4.72;;;;;;;18.93;43.34;99166.00;5025322;28;20416;-57
2024/01/18 00:56:38;;;;;;;6.03;4.85;;;;;;;18.92;43.38;99184.94;5024869;28;20056;-57
2024/01/18 00:59:07;;;;;;;5.80;4.88;;;;;;;18.92;43.19;99174.22;5026648;28;20050;-60
2024/01/18 01:01:34;;;;;;;5.88;4.80;;;;;;;18.91;43.35;99178.72;5028485;28;20045;-60
2024/01/18 01:04:02;;;;;;;6.43;4.78;;;;;;;18.91;43.29;99165.31;5024785;28;20049;-61
2024/01/18 01:06:30;;;;;;;5.70;4.35;;;;;;;18.91;43.31;99185.94;5024235;28;20065;-60
2024/01/18 01:08:57;;;;;;;5.55;4.70;;;;;;;18.89;43.32;99171.88;5027210;28;20049;-55
2024/01/18 01:11:24;;;;;;;6.03;4.43;;;;;;;18.90;43.21;99173.56;5028522;28;20049;-57
2024/01/18 01:13:52;;;;;;;5.03;4.35;;;;;;;18.89;43.34;99182.63;5024275;28;20766;-57
2024/01/18 01:16:20;;;;;;;5.03;4.20;;;;;;;18.88;43.13;99194.31;5024318;28;20050;-57
2024/01/18 01:18:48;;;;;;;5.40;4.15;;;;;;;18.87;43.24;99173.88;5027025;28;20049;-60
2024/01/18 01:21:15;;;;;;;5.43;3.90;;;;;;;18.87;43.23;99177.41;5029336;28;20056;-61
2024/01/18 01:23:48;;;;;;;5.70;4.40;;;;;;;18.86;43.27;99194.50;5022648;28;20488;-60
2024/01/18 01:26:15;;;;;;;4.95;4.45;;;;;;;18.86;42.99;99191.81;5035819;28;20463;-61
2024/01/18 01:28:43;;;;;;;5.00;4.13;;;;;;;18.85;43.10;99198.19;5027482;28;20519;-57
2024/01/18 01:31:11;;;;;;;5.93;4.28;;;;;;;18.84;43.20;99209.06;5027165;28;20049;-58
2024/01/18 01:33:39;;;;;;;4.78;3.85;;;;;;;18.83;43.19;99210.91;5016535;28;20481;-57
2024/01/18 01:36:06;;;;;;;5.55;4.05;;;;;;;18.83;43.18;99205.56;5024263;28;20050;-57
2024/01/18 01:38:34;;;;;;;6.07;4.60;;;;;;;18.82;43.12;99208.41;5027852;28;20054;-60
2024/01/18 01:41:02;;;;;;;5.50;4.28;;;;;;;18.83;42.96;99228.84;5027944;28;20072;-60
2024/01/18 01:43:30;;;;;;;4.82;3.83;;;;;;;18.82;43.09;99219.13;5024134;28;20057;-60
2024/01/18 01:45:58;;;;;;;5.00;4.18;;;;;;;18.80;43.00;99216.63;5022837;28;20050;-59
2024/01/18 01:48:25;;;;;;;5.38;4.55;;;;;;;18.80;43.01;99213.09;5043853;28;20041;-60
2024/01/18 01:50:53;;;;;;;5.00;4.18;;;;;;;18.78;43.04;99232.88;5027719;28;20045;-60
2024/01/18 01:53:21;;;;;;;6.28;4.90;;;;;;;18.78;43.03;99224.00;5023842;28;20431;-60
2024/01/18 01:55:49;;;;;;;4.60;3.97;;;;;;;18.76;43.04;99210.78;5023625;28;20053;-60
2024/01/18 01:58:18;;;;;;;5.25;4.30;;;;;;;18.77;43.11;99236.56;5019260;28;20048;-56
2024/01/18 02:00:46;;;;;;;4.85;3.88;;;;;;;18.76;43.06;99236.75;5025775;28;20054;-56
2024/01/18 02:03:13;;;;;;;5.30;4.30;;;;;;;18.74;43.07;99220.81;5023562;28;20373;-56
2024/01/18 02:05:41;;;;;;;4.90;4.40;;;;;;;18.74;43.23;99228.00;5030995;28;20385;-56
2024/01/18 02:08:09;;;;;;;4.90;3.90;;;;;;;18.73;43.07;99219.13;5027813;28;20483;-57
2024/01/18 02:10:37;;;;;;;5.63;4.20;;;;;;;18.71;43.11;99231.03;5026709;28;20056;-57
2024/01/18 02:13:06;;;;;;;5.32;4.43;;;;;;;18.72;42.92;99238.09;5023314;28;20056;-55
2024/01/18 02:15:34;;;;;;;6.05;4.25;;;;;;;18.71;42.96;99244.41;5024837;28;20362;-60
2024/01/18 02:18:01;;;;;;;5.40;4.60;;;;;;;18.70;43.04;99257.00;5042031;28;20414;-56
2024/01/18 02:20:29;;;;;;;6.28;3.90;;;;;;;18.69;43.03;99260.66;5026570;28;20058;-60
2024/01/18 02:22:58;;;;;;;7.03;4.57;;;;;;;18.69;42.93;99255.28;5023326;28;20072;-60
2024/01/18 02:25:27;;;;;;;5.13;4.20;;;;;;;18.68;43.00;99240.22;5027955;28;20050;-60
2024/01/18 02:27:58;;;;;;;6.13;4.30;;;;;;;18.68;43.01;99236.72;5027415;28;20057;-57
2024/01/18 02:30:25;;;;;;;5.07;4.03;;;;;;;18.67;43.01;99253.78;5026141;28;20049;-57
2024/01/18 02:32:52;;;;;;;5.90;3.90;;;;;;;18.66;43.01;99265.50;5022395;28;20048;-56
2024/01/18 02:35:20;;;;;;;6.30;4.63;;;;;;;18.65;43.01;99248.59;5019546;28;20456;-57
2024/01/18 02:37:48;;;;;;;4.95;4.28;;;;;;;18.65;43.04;99227.13;5027402;28;20045;-57
2024/01/18 02:40:16;;;;;;;5.45;4.28;;;;;;;18.65;42.92;99259.31;5026501;28;20062;-57
2024/01/18 02:42:43;;;;;;;5.13;4.28;;;;;;;18.64;43.05;99254.13;5024062;28;20050;-57
2024/01/18 02:45:11;;;;;;;4.50;4.03;;;;;;;18.63;43.00;99258.63;5025164;28;20045;-60
2024/01/18 02:47:39;;;;;;;4.72;4.22;;;;;;;18.63;42.99;99253.25;5026954;28;20049;-60
2024/01/18 02:50:08;;;;;;;4.82;4.28;;;;;;;18.64;43.03;99254.13;5025148;28;20108;-60
2024/01/18 02:52:38;;;;;;;5.40;4.05;;;;;;;18.63;42.93;99260.47;5023576;28;20053;-60
2024/01/18 02:55:06;;;;;;;4.78;3.70;;;;;;;18.62;43.09;99251.59;5030209;28;20034;-61
2024/01/18 02:57:34;;;;;;;6.03;4.45;;;;;;;18.61;43.08;99263.31;5026739;28;20048;-60
2024/01/18 03:00:02;;;;;;;5.82;4.63;;;;;;;18.61;43.06;99249.09;5024458;28;20050;-59
2024/01/18 03:02:29;;;;;;;5.25;4.40;;;;;;;18.61;43.13;99241.88;5023016;28;20053;-60
2024/01/18 03:04:56;;;;;;;5.13;4.32;;;;;;;18.61;43.02;99262.50;5024930;28;20370;-60
2024/01/18 03:07:24;;;;;;;6.25;4.53;;;;;;;18.60;42.93;99250.94;5026876;28;20046;-56
2024/01/18 03:09:51;;;;;;;5.03;4.22;;;;;;;18.60;43.08;99267.00;5024140;28;20053;-56
2024/01/18 03:12:18;;;;;;;5.47;4.53;;;;;;;18.59;43.05;99267.16;5022641;28;20046;-57
2024/01/18 03:14:46;;;;;;;6.32;4.43;;;;;;;18.58;43.09;99257.44;5025651;28;20048;-57
2024/01/18 03:17:13;;;;;;;6.13;4.55;;;;;;;18.57;43.05;99251.25;5026599;28;20053;-56
2024/01/18 03:19:40;;;;;;;5.13;4.63;;;;;;;18.58;43.11;99263.63;5024227;28;20105;-60
2024/01/18 03:22:08;;;;;;;5.68;4.50;;;;;;;18.56;43.22;99262.97;5028562;28;20376;-60
2024/01/18 03:24:35;;;;;;;5.53;4.93;;;;;;;18.57;43.10;99258.47;5026285;28;20046;-60
2024/01/18 03:27:02;;;;;;;5.28;4.28;;;;;;;18.56;43.21;99264.84;5022314;28;20053;-57
2024/01/18 03:29:30;;;;;;;7.10;4.22;;;;;;;18.55;43.19;99247.88;5024180;28;20041;-59
2024/01/18 03:31:57;;;;;;;5.60;4.60;;;;;;;18.54;43.16;99252.41;5022455;28;20049;-57
2024/01/18 03:34:25;;;;;;;5.00;4.15;;;;;;;18.54;43.29;99252.41;5022154;28;20034;-57
2024/01/18 03:36:54;;;;;;;4.20;3.53;;;;;;;18.54;43.24;99248.91;5019784;28;20116;-60
2024/01/18 03:39:22;;;;;;;5.57;4.22;;;;;;;18.54;43.22;99273.84;5033296;28;20049;-61
2024/01/18 03:41:49;;;;;;;5.25;4.03;;;;;;;18.53;43.28;99249.91;5022660;28;20046;-61
2024/01/18 03:44:16;;;;;;;5.20;4.53;;;;;;;18.54;43.24;99256.94;5024949;28;20042;-60
2024/01/18 03:46:44;;;;;;;4.90;3.97;;;;;;;18.52;43.33;99269.69;5026019;28;20053;-61
2024/01/18 03:49:11;;;;;;;4.65;4.15;;;;;;;18.52;43.43;99275.03;5024943;28;20053;-58
2024/01/18 03:51:38;;;;;;;4.47;3.80;;;;;;;18.52;43.33;99275.03;5021401;28;20526;-57
2024/01/18 03:54:06;;;;;;;5.78;4.15;;;;;;;18.51;43.43;99279.56;5024854;28;20061;-57
2024/01/18 03:56:33;;;;;;;4.75;3.95;;;;;;;18.51;43.50;99279.56;5027576;28;20045;-57
2024/01/18 03:59:01;;;;;;;6.05;4.20;;;;;;;18.49;43.39;99261.97;5033727;28;20044;-60
2024/01/18 04:01:32;;;;;;;4.90;4.10;;;;;;;18.49;43.35;99253.91;5021552;28;20057;-60
2024/01/18 04:04:02;;;;;;;4.30;3.55;;;;;;;18.49;43.63;99261.97;5025125;28;20056;-60
2024/01/18 04:06:29;;;;;;;5.43;4.10;;;;;;;18.48;43.58;99255.75;5025816;28;20049;-60
2024/01/18 04:08:57;;;;;;;4.72;4.05;;;;;;;18.47;43.59;99245.19;5023001;28;20064;-60
2024/01/18 04:11:24;;;;;;;4.38;3.53;;;;;;;18.47;43.64;99245.19;5021811;28;20432;-60
2024/01/18 04:13:52;;;;;;;4.22;3.30;;;;;;;18.45;43.67;99240.00;5026465;28;20052;-60
2024/01/18 04:16:19;;;;;;;5.13;4.40;;;;;;;18.44;43.78;99246.38;5025430;28;20109;-60
2024/01/18 04:18:47;;;;;;;4.22;3.78;;;;;;;18.44;43.54;99249.06;5023146;28;20045;-60
2024/01/18 04:21:14;;;;;;;4.63;3.80;;;;;;;18.45;43.68;99244.53;5030283;28;20389;-61
2024/01/18 04:23:42;;;;;;;4.22;3.50;;;;;;;18.45;43.79;99252.56;5024915;28;20064;-60
2024/01/18 04:26:09;;;;;;;4.75;3.70;;;;;;;18.44;43.77;99253.59;5028964;28;20038;-60
2024/01/18 04:28:36;;;;;;;3.65;3.10;;;;;;;18.44;43.77;99243.69;5023378;28;20045;-57
2024/01/18 04:31:04;;;;;;;6.15;4.10;;;;;;;18.44;43.82;99226.78;5020661;28;20531;-57
2024/01/18 04:33:31;;;;;;;3.95;3.28;;;;;;;18.43;43.76;99243.84;5023684;28;20053;-57
2024/01/18 04:35:59;;;;;;;3.88;3.10;;;;;;;18.43;43.72;99236.66;5018046;28;20366;-57
2024/01/18 04:38:26;;;;;;;4.28;3.38;;;;;;;18.43;43.80;99243.84;5021824;28;20049;-56
2024/01/18 04:40:54;;;;;;;4.10;2.97;;;;;;;18.42;43.82;99247.53;5020490;28;20408;-57
2024/01/18 04:43:22;;;;;;;4.72;3.53;;;;;;;18.43;43.71;99235.81;5025160;28;20045;-55
2024/01/18 04:45:50;;;;;;;5.32;3.67;;;;;;;18.42;43.82;99226.94;5024591;28;20052;-57
2024/01/18 04:48:17;;;;;;;3.78;2.90;;;;;;;18.41;43.89;99230.63;5022305;28;20057;-57
2024/01/18 04:50:45;;;;;;;3.92;3.15;;;;;;;18.43;43.80;99238.47;5022099;28;20057;-57
2024/01/18 04:53:14;;;;;;;4.25;3.47;;;;;;;18.42;43.94;99228.78;5023299;28;20060;-57
2024/01/18 04:55:43;;;;;;;4.38;3.35;;;;;;;18.40;44.05;99217.41;5025600;28;20037;-57
2024/01/18 04:58:10;;;;;;;5.03;3.47;;;;;;;18.41;44.03;99211.88;5022837;28;20034;-57
2024/01/18 05:00:38;;;;;;;4.55;3.22;;;;;;;18.39;44.03;99205.84;5021697;28;20049;-57
2024/01/18 05:03:05;;;;;;;4.72;3.17;;;;;;;18.42;44.01;99210.03;5025720;28;20510;-57
2024/01/18 05:05:35;;;;;;;4.10;3.10;;;;;;;18.40;44.09;99222.75;5024286;28;20050;-57
2024/01/18 05:08:03;;;;;;;3.63;2.75;;;;;;;18.39;43.92;99216.56;5022219;28;20397;-57
2024/01/18 05:10:31;;;;;;;4.07;3.33;;;;;;;18.39;44.14;99218.38;5022153;28;20054;-57
2024/01/18 05:12:58;;;;;;;4.00;3.15;;;;;;;18.39;44.12;99226.41;5016545;28;20052;-57
2024/01/18 05:15:25;;;;;;;4.07;3.17;;;;;;;18.38;44.06;99236.31;5025515;28;20056;-57
2024/01/18 05:17:54;;;;;;;4.10;3.00;;;;;;;18.38;44.19;99233.63;5022644;28;20411;-56
2024/01/18 05:20:21;;;;;;;4.07;3.03;;;;;;;18.39;44.06;99231.78;5020328;28;20049;-57
2024/01/18 05:22:51;;;;;;;3.58;3.28;;;;;;;18.37;44.15;99228.44;5026330;28;20045;-57
2024/01/18 05:25:18;;;;;;;6.03;3.47;;;;;;;18.38;44.21;99240.81;5020037;28;20519;-57
2024/01/18 05:27:46;;;;;;;3.78;3.28;;;;;;;18.36;44.11;99240.16;5028509;28;20046;-57
2024/01/18 05:30:15;;;;;;;5.18;3.50;;;;;;;18.37;44.15;99231.97;5021904;28;20531;-57
2024/01/18 05:32:43;;;;;;;4.38;2.67;;;;;;;18.35;44.22;99233.97;5026776;28;20395;-57
2024/01/18 05:35:11;;;;;;;4.07;3.00;;;;;;;18.35;44.24;99233.09;5014790;28;20053;-56
2024/01/18 05:37:38;;;;;;;3.55;2.55;;;;;;;18.34;44.20;99239.47;5017220;28;20060;-60
2024/01/18 05:40:09;;;;;;;4.85;2.67;;;;;;;18.34;44.19;99245.66;5026628;28;20060;-60
2024/01/18 05:42:37;;;;;;;3.35;2.50;;;;;;;18.34;44.16;99240.31;5043750;28;20053;-60
2024/01/18 05:45:05;;;;;;;4.38;3.10;;;;;;;18.34;44.14;99234.97;5029326;28;20383;-60
2024/01/18 05:47:34;;;;;;;4.60;2.88;;;;;;;18.33;44.21;99235.13;5025404;28;20049;-60
2024/01/18 05:50:01;;;;;;;4.00;3.10;;;;;;;18.32;44.34;99236.16;5025106;28;20394;-60
2024/01/18 05:52:29;;;;;;;3.83;2.88;;;;;;;18.33;44.31;99227.94;5034652;28;20053;-60
2024/01/18 05:54:58;;;;;;;3.20;2.80;;;;;;;18.33;44.29;99219.06;5038031;28;20510;-60
2024/01/18 05:57:26;;;;;;;3.58;2.47;;;;;;;18.31;44.22;99223.72;5025032;28;20057;-53
2024/01/18 05:59:54;;;;;;;4.18;2.97;;;;;;;18.31;44.18;99239.81;5027319;28;20061;-53
2024/01/18 06:02:21;;;;;;;3.83;2.65;;;;;;;18.29;44.37;99230.09;5028771;28;20045;-56
2024/01/18 06:04:48;;;;;;;3.63;2.75;;;;;;;18.29;44.30;99224.75;5027744;28;20407;-56
2024/01/18 06:07:16;;;;;;;3.38;2.40;;;;;;;18.28;44.38;99231.09;5024338;28;20404;-59
2024/01/18 06:09:44;;;;;;;3.83;2.85;;;;;;;18.28;44.42;99228.44;5026349;28;20054;-60
2024/01/18 06:12:11;;;;;;;3.92;2.58;;;;;;;18.28;44.18;99236.47;5028286;28;20408;-60
2024/01/18 06:14:39;;;;;;;3.55;2.70;;;;;;;18.29;44.28;99231.94;5028627;28;20057;-60
2024/01/18 06:17:09;;;;;;;2.95;2.45;;;;;;;18.29;44.17;99237.28;5039375;28;20052;-58
2024/01/18 06:19:36;;;;;;;3.78;2.40;;;;;;;18.28;44.17;99236.47;5044373;28;20052;-59
2024/01/18 06:22:04;;;;;;;3.53;2.58;;;;;;;18.28;44.15;99244.50;5034309;28;20045;-59
2024/01/18 06:24:31;;;;;;;3.40;2.40;;;;;;;18.27;44.30;99242.81;5044727;28;20060;-60
2024/01/18 06:26:59;;;;;;;3.28;2.35;;;;;;;18.28;44.20;99235.63;5047329;28;20399;-59
2024/01/18 06:29:29;;;;;;;3.08;2.20;;;;;;;18.28;44.45;99232.94;5029605;28;20077;-59
2024/01/18 06:31:57;;;;;;;3.53;2.63;;;;;;;18.27;44.24;99234.78;5020419;28;20050;-58
2024/01/18 06:34:24;;;;;;;3.78;2.35;;;;;;;18.27;44.28;99240.16;5041781;28;20491;-58
2024/01/18 06:36:52;;;;;;;3.63;2.13;;;;;;;18.27;44.32;99236.59;5038256;28;20042;-57
2024/01/18 06:39:20;;;;;;;2.80;2.10;;;;;;;18.26;44.43;99251.00;5019563;28;20058;-55
2024/01/18 06:41:47;;;;;;;4.28;2.42;;;;;;;18.27;44.29;99244.63;5028330;28;20045;-55
2024/01/18 06:44:14;;;;;;;3.85;2.47;;;;;;;18.26;44.36;99241.13;5026558;28;20476;-56
2024/01/18 06:46:42;;;;;;;3.15;2.40;;;;;;;18.26;44.19;99230.41;5024317;28;20053;-56
2024/01/18 06:49:10;;;;;;;3.20;2.40;;;;;;;18.25;44.34;99234.09;5025460;28;20512;-57
2024/01/18 06:51:39;;;;;;;4.88;2.60;;;;;;;18.26;44.30;99245.66;5028313;28;20053;-57
2024/01/18 06:54:07;;;;;;;5.68;2.50;;;;;;;18.25;44.23;99247.50;5026484;28;20049;-58
2024/01/18 06:56:34;;;;;;;2.65;1.85;;;;;;;18.26;44.00;99251.00;5022660;28;20054;-58
2024/01/18 06:59:02;;;;;;;3.17;2.35;;;;;;;18.27;44.10;99261.59;5036104;28;20060;-59
2024/01/18 07:01:29;;;;;;;4.63;2.58;;;;;;;18.26;44.25;99254.53;5027768;28;20056;-59
2024/01/18 07:03:56;;;;;;;3.30;2.10;;;;;;;18.27;44.33;99260.72;5026411;28;20049;-58
2024/01/18 07:06:24;;;;;;;3.88;2.70;;;;;;;18.28;44.23;99263.25;5024104;28;20050;-58
2024/01/18 07:08:52;;;;;;;2.75;1.95;;;;;;;18.27;44.19;99269.63;5025236;28;20072;-58
2024/01/18 07:11:19;;;;;;;3.17;2.28;;;;;;;18.28;44.16;99260.56;5019734;28;20046;-58
2024/01/18 07:13:47;;;;;;;3.53;2.10;;;;;;;18.27;44.16;99269.63;5029986;28;20058;-59
2024/01/18 07:16:14;;;;;;;3.88;2.30;;;;;;;18.29;44.08;99278.31;5022362;28;20045;-57
2024/01/18 07:18:41;;;;;;;3.85;2.47;;;;;;;18.31;44.03;99279.97;5027208;28;20072;-56
2024/01/18 07:21:09;;;;;;;2.63;1.90;;;;;;;18.31;44.02;99274.63;5027054;28;20490;-56
2024/01/18 07:23:36;;;;;;;2.85;1.90;;;;;;;18.29;44.08;99302.41;5026433;28;20056;-55
2024/01/18 07:26:04;;;;;;;4.50;2.05;;;;;;;18.29;44.04;99301.59;5023800;28;20050;-54
2024/01/18 07:28:31;;;;;;;2.40;1.73;;;;;;;18.29;44.01;99298.91;5026615;28;20064;-60
2024/01/18 07:31:00;;;;;;;2.67;1.88;;;;;;;18.27;44.06;99299.09;5027381;28;20053;-61
2024/01/18 07:33:28;;;;;;;2.45;1.60;;;;;;;18.27;44.03;99295.53;5025987;28;20046;-61
2024/01/18 07:35:55;;;;;;;3.08;2.17;;;;;;;18.26;43.97;99301.91;5023602;28;20042;-60
2024/01/18 07:38:23;;;;;;;3.50;2.28;;;;;;;18.25;44.04;99289.53;5026900;28;20048;-57
2024/01/18 07:40:50;;;;;;;3.47;1.65;;;;;;;18.25;44.01;99284.16;5027357;28;20046;-55
2024/01/18 07:43:18;;;;;;;3.17;1.70;;;;;;;18.25;44.00;99281.47;5025916;28;20045;-56
2024/01/18 07:45:46;;;;;;;3.00;2.13;;;;;;;18.24;43.98;99283.31;5023826;28;20064;-55
2024/01/18 07:48:13;;;;;;;2.47;1.55;;;;;;;18.24;44.03;99287.84;5026683;28;20052;-60
2024/01/18 07:50:41;;;;;;;3.13;1.90;;;;;;;18.23;44.14;99289.69;5027319;28;20038;-60
2024/01/18 07:53:10;;;;;;;2.72;1.85;;;;;;;18.23;44.09;99291.50;5024995;28;20507;-59
2024/01/18 07:55:38;;;;;;;2.40;1.42;;;;;;;18.22;44.10;99273.75;5021627;28;20057;-60
2024/01/18 07:58:05;;;;;;;3.50;2.50;;;;;;;18.21;44.12;99266.75;5027183;28;20053;-59
2024/01/18 08:00:32;;;;;;;2.40;1.73;;;;;;;18.20;44.09;99287.34;5027221;28;20053;-60
2024/01/18 08:03:00;;;;;;;2.90;1.70;;;;;;;18.19;44.28;99282.97;5025273;28;20435;-61
2024/01/18 08:05:28;;;;;;;2.38;1.77;;;;;;;18.22;44.28;99295.19;5023091;28;20046;-60
2024/01/18 08:07:55;;;;;;;2.40;1.60;;;;;;;18.20;44.23;99281.97;5037138;28;20076;-56
2024/01/18 08:10:23;;;;;;;2.60;1.67;;;;;;;18.21;44.23;99283.66;5026360;28;20053;-56
2024/01/18 08:12:52;;;;;;;3.00;1.75;;;;;;;18.21;44.27;99288.16;5025313;28;20049;-56
2024/01/18 08:15:21;;;;;;;4.60;2.03;;;;;;;18.20;44.38;99273.94;5023616;28;20440;-55
2024/01/18 08:17:49;;;;;;;2.50;1.65;;;;;;;18.20;44.35;99292.69;5016776;28;20041;-59
2024/01/18 08:20:16;;;;;;;3.25;1.67;;;;;;;18.21;44.16;99304.22;5026725;28;20056;-60
2024/01/18 08:22:44;;;;;;;2.50;1.80;;;;;;;18.19;44.06;99307.09;5024774;28;20045;-61
2024/01/18 08:25:12;;;;;;;3.42;1.80;;;;;;;18.20;43.98;99299.88;5032746;28;20045;-61
2024/01/18 08:27:41;;;;;;;2.58;1.70;;;;;;;18.20;43.87;99303.41;5016760;28;20060;-61
2024/01/18 08:30:09;;;;;;;4.05;2.25;;;;;;;18.21;43.56;99315.78;5026557;28;20065;-60
2024/01/18 08:32:37;;;;;;;3.90;1.73;;;;;;;18.22;43.49;99314.78;5023644;28;20049;-60
2024/01/18 08:35:08;;;;;;;2.38;1.48;;;;;;;18.25;43.53;99316.31;5022962;28;20079;-61
2024/01/18 08:37:37;;;;;;;3.00;1.65;;;;;;;18.25;43.43;99306.44;5026256;28;20050;-56
2024/01/18 08:40:05;;;;;;;3.75;1.80;;;;;;;18.27;43.39;99311.59;5026422;28;20057;-59
2024/01/18 08:42:33;;;;;;;2.13;1.15;;;;;;;18.29;43.20;99306.94;5022947;28;20054;-62
2024/01/18 08:45:00;;;;;;;2.20;1.45;;;;;;;18.31;43.29;99309.44;5023541;28;20057;-62
2024/01/18 08:47:27;;;;;;;3.55;2.65;;;;;;;18.29;42.97;99313.13;5026168;28;20045;-59
2024/01/18 08:49:55;;;;;;;2.58;1.83;;;;;;;18.27;42.57;99315.16;5026157;28;20061;-59
2024/01/18 08:52:22;;;;;;;2.53;1.83;;;;;;;18.28;42.75;99316.81;5022699;28;20049;-59
2024/01/18 08:54:51;;;;;;;3.00;1.58;;;;;;;18.29;42.91;99315.81;5027505;28;20042;-59
2024/01/18 08:57:19;;;;;;;2.63;1.50;;;;;;;18.31;42.94;99314.81;5026001;28;20056;-59
2024/01/18 08:59:47;;;;;;;3.78;1.58;;;;;;;18.31;42.97;99321.03;5026175;28;20073;-59
2024/01/18 09:02:14;;;;;;;2.55;1.92;;;;;;;18.32;42.84;99322.69;5022496;28;20057;-59
2024/01/18 09:04:50;;;;;;;3.42;1.60;;;;;;;18.33;43.00;99318.19;5024779;28;20052;-59
2024/01/18 09:07:19;;;;;;;2.42;1.50;;;;;;;18.33;43.01;99320.84;5027103;28;20407;-63
2024/01/18 09:09:47;;;;;;;3.53;1.52;;;;;;;18.33;42.89;99318.19;5031907;28;20049;-59
2024/01/18 09:12:15;;;;;;;2.35;1.52;;;;;;;18.33;43.03;99319.00;5026430;28;20054;-59
2024/01/18 09:14:44;;;;;;;2.85;1.33;;;;;;;18.34;43.03;99322.53;5029173;28;20060;-59
2024/01/18 09:17:12;;;;;;;2.78;1.77;;;;;;;18.34;43.04;99320.69;5029131;28;20056;-59
2024/01/18 09:19:39;;;;;;;2.30;1.55;;;;;;;18.33;43.10;99308.31;5028983;28;20053;-59
2024/01/18 09:22:07;;;;;;;2.85;1.63;;;;;;;18.34;42.99;99314.50;5026185;28;20053;-59
2024/01/18 09:24:34;;;;;;;2.97;1.83;;;;;;;18.34;42.95;99306.47;5029073;28;20407;-59
2024/01/18 09:27:01;;;;;;;4.97;1.65;;;;;;;18.33;43.05;99319.00;5029927;28;20046;-59
2024/01/18 09:29:29;;;;;;;3.05;1.70;;;;;;;18.35;42.98;99337.59;5028133;28;20052;-58
2024/01/18 09:31:56;;;;;;;3.58;1.67;;;;;;;18.35;43.09;99314.34;5025929;28;20504;-59
2024/01/18 09:34:25;;;;;;;2.80;1.70;;;;;;;18.35;43.03;99329.56;5028796;28;20494;-59
2024/01/18 09:36:53;;;;;;;1.90;1.20;;;;;;;18.35;42.96;99321.53;5029905;28;20044;-62
2024/01/18 09:39:20;;;;;;;3.35;1.70;;;;;;;18.36;43.08;99328.59;5027973;28;20053;-63
2024/01/18 09:41:53;;;;;;;2.65;1.83;;;;;;;18.36;42.92;99339.28;5025953;28;20046;-62
2024/01/18 09:44:32;;;;;;;3.35;1.70;;;;;;;18.36;43.07;99339.28;5020250;28;20046;-62
2024/01/18 09:47:03;;;;;;;2.15;1.50;;;;;;;18.36;43.04;99340.13;5028214;28;20041;-59
2024/01/18 09:49:33;;;;;;;3.33;1.30;;;;;;;18.37;43.02;99322.22;5025500;28;20049;-59
2024/01/18 09:52:01;;;;;;;2.80;1.77;;;;;;;18.37;43.04;99338.28;5028066;28;20061;-59
2024/01/18 09:54:29;;;;;;;2.63;1.58;;;;;;;18.37;42.93;99330.25;5029164;28;20049;-59
2024/01/18 09:57:00;;;;;;;2.63;1.85;;;;;;;18.38;42.42;99327.41;5028850;28;20068;-59
2024/01/18 09:59:28;;;;;;;4.90;4.15;;;;;;;18.34;41.35;99330.56;5034997;28;20046;-59
2024/01/18 10:01:59;;;;;;;3.47;2.70;;;;;;;18.29;41.99;99317.66;5026841;28;20053;-57
2024/01/18 10:04:27;;;;;;;2.95;1.77;;;;;;;18.29;42.39;99333.72;5028884;28;20488;-57
2024/01/18 10:06:55;;;;;;;2.30;1.60;;;;;;;18.28;42.84;99332.91;5027147;28;20107;-58
2024/01/18 10:09:26;;;;;;;3.03;2.00;;;;;;;18.31;42.66;99338.91;5025389;28;20042;-57
2024/01/18 10:11:53;;;;;;;2.78;1.88;;;;;;;18.30;42.73;99316.66;5019594;28;20056;-57
2024/01/18 10:14:44;;;;;;;3.55;2.35;;;;;;;18.33;42.95;99327.06;5027629;28;20052;-57
2024/01/18 10:17:21;;;;;;;2.30;1.60;;;;;;;18.34;42.80;99317.16;5025372;28;20053;-61
2024/01/18 10:19:50;;;;;;;2.15;1.55;;;;;;;18.35;43.15;99309.00;5018766;28;20439;-61
2024/01/18 10:22:20;;;;;;;3.03;1.73;;;;;;;18.38;43.10;99318.53;5028550;28;20045;-61
2024/01/18 10:24:49;;;;;;;2.30;1.50;;;;;;;18.39;43.10;99331.78;5026507;28;20046;-61
2024/01/18 10:27:21;;;;;;;2.72;1.77;;;;;;;18.40;42.97;99327.25;5026016;28;20433;-61
2024/01/18 10:29:50;;;;;;;2.30;1.70;;;;;;;18.42;43.10;99325.25;5028468;28;20049;-61
2024/01/18 10:32:17;;;;;;;2.85;1.58;;;;;;;18.44;42.98;99307.19;5028380;28;20407;-61
2024/01/18 10:34:46;;;;;;;2.33;1.73;;;;;;;18.44;43.08;99308.00;5024800;28;20061;-61
2024/01/18 10:37:17;;;;;;;2.53;1.70;;;;;;;18.46;43.20;99313.19;5026514;28;20038;-58
2024/01/18 10:39:46;;;;;;;2.65;1.75;;;;;;;18.46;43.16;99307.84;5028104;28;20384;-58
2024/01/18 10:42:14;;;;;;;2.70;1.48;;;;;;;18.47;42.70;99306.81;5026911;28;20486;-58
2024/01/18 10:44:44;;;;;;;3.17;1.58;;;;;;;18.48;42.99;99295.13;5028128;28;20057;-58
2024/01/18 10:47:13;;;;;;;2.50;1.77;;;;;;;18.50;43.04;99283.22;5027781;28;20068;-61
2024/01/18 10:49:43;;;;;;;3.50;1.67;;;;;;;18.50;42.91;99283.22;5026689;28;20045;-62
2024/01/18 10:52:11;;;;;;;2.85;1.73;;;;;;;18.51;42.99;99284.06;5025616;28;20054;-62
2024/01/18 10:54:38;;;;;;;3.10;1.90;;;;;;;18.51;42.90;99294.78;5024468;28;20045;-61
2024/01/18 10:57:21;;;;;;;2.38;1.58;;;;;;;18.53;43.06;99298.16;5020358;28;20484;-61
2024/01/18 10:59:51;;;;;;;2.50;1.63;;;;;;;18.53;43.05;99282.91;5027734;28;20499;-61
2024/01/18 11:02:20;;;;;;;2.10;1.42;;;;;;;18.54;42.92;99297.13;5024130;28;20495;-62
2024/01/18 11:04:51;;;;;;;2.60;1.73;;;;;;;18.53;42.94;99293.63;5026377;28;20154;-61
2024/01/18 11:07:22;;;;;;;2.03;1.40;;;;;;;18.56;42.92;99291.63;5027676;28;20057;-58
2024/01/18 11:09:50;;;;;;;2.40;1.52;;;;;;;18.56;43.01;99287.09;5025999;28;20045;-58
2024/01/18 11:12:18;;;;;;;3.00;1.77;;;;;;;18.56;42.93;99287.09;5024152;28;20484;-58
2024/01/18 11:14:47;;;;;;;2.50;1.52;;;;;;;18.58;42.91;99293.13;5027570;28;20053;-58
2024/01/18 11:17:17;;;;;;;2.22;1.50;;;;;;;18.58;42.87;99290.44;5027828;28;20053;-60
2024/01/18 11:19:45;;;;;;;2.58;1.60;;;;;;;18.58;42.65;99294.97;5025171;28;20056;-61
2024/01/18 11:22:24;;;;;;;3.22;1.60;;;;;;;18.58;42.77;99294.97;5024240;28;20050;-61
2024/01/18 11:24:52;;;;;;;4.00;1.38;;;;;;;18.58;42.76;99282.41;5027343;28;20056;-61
2024/01/18 11:27:21;;;;;;;2.55;1.40;;;;;;;18.59;42.84;99281.41;5027443;28;20042;-57
2024/01/18 11:29:49;;;;;;;2.95;1.42;;;;;;;18.60;42.88;99284.94;5023357;28;20400;-57
2024/01/18 11:32:19;;;;;;;2.47;1.33;;;;;;;18.60;42.89;99280.41;5025739;28;20108;-57
2024/01/18 11:34:49;;;;;;;2.30;1.50;;;;;;;18.60;42.79;99275.06;5026999;28;20080;-58
2024/01/18 11:37:18;;;;;;;3.15;1.70;;;;;;;18.61;42.92;99268.69;5024882;28;20053;-57